Time;durP1;ratioP1;P1;durP2;ratioP2;P2;SDS_P1;SDS_P2;PMS_P1;PMS_P2;Temp;Humidity;BMP_temperature;BMP_pressure;BME280_temperature;BME280_humidity;BME280_pressure;Samples;Min_cycle;Max_cycle;Signal;HPM_P1;HPM_P2
2022/06/16 03:00:59;;;;;;;15.27;9.48;;;13.10;99.90;;;;;;6221566;22;20020;-81
2022/06/16 03:03:30;;;;;;;13.82;9.20;;;13.00;99.90;;;;;;6245385;23;20027;-81
2022/06/16 03:05:58;;;;;;;15.85;9.40;;;13.00;99.90;;;;;;6246641;23;20012;-83
2022/06/16 03:08:27;;;;;;;18.73;9.77;;;12.90;99.90;;;;;;6216653;23;20095;-81
2022/06/16 03:10:54;;;;;;;16.42;9.15;;;12.90;99.90;;;;;;6253114;22;20468;-80
2022/06/16 03:13:25;;;;;;;15.50;9.45;;;12.90;99.90;;;;;;6279394;22;20052;-82
2022/06/16 03:15:53;;;;;;;14.70;10.15;;;12.80;99.90;;;;;;6252936;22;20054;-81
2022/06/16 03:18:20;;;;;;;18.33;10.52;;;12.80;99.90;;;;;;6279523;22;20030;-79
2022/06/16 03:20:48;;;;;;;15.30;9.68;;;12.70;99.90;;;;;;6251638;22;20453;-80
2022/06/16 03:23:14;;;;;;;21.15;10.70;;;12.70;99.90;;;;;;6251789;22;20012;-83
2022/06/16 03:25:41;;;;;;;17.88;10.32;;;12.60;99.90;;;;;;6226711;22;20018;-81
2022/06/16 03:28:08;;;;;;;16.35;10.70;;;12.50;99.90;;;;;;6279370;22;20014;-82
2022/06/16 03:30:36;;;;;;;18.80;10.48;;;12.40;99.90;;;;;;6279545;22;20012;-81
2022/06/16 03:33:03;;;;;;;16.40;10.65;;;12.40;99.90;;;;;;6252329;22;20433;-82
2022/06/16 03:35:29;;;;;;;17.05;11.13;;;12.40;99.90;;;;;;6279023;22;20011;-83
2022/06/16 03:37:55;;;;;;;14.77;10.38;;;12.30;99.90;;;;;;6252156;22;20337;-80
2022/06/16 03:40:22;;;;;;;18.75;11.32;;;12.30;99.90;;;;;;6251589;22;20023;-83
2022/06/16 03:42:49;;;;;;;22.38;11.75;;;12.40;99.90;;;;;;6279169;22;20057;-82
2022/06/16 03:45:15;;;;;;;19.40;11.00;;;12.40;99.90;;;;;;6251665;22;20495;-81
2022/06/16 03:47:41;;;;;;;16.17;9.63;;;12.40;99.90;;;;;;6279161;22;20019;-81
2022/06/16 03:50:10;;;;;;;20.33;11.38;;;12.40;99.90;;;;;;6279280;22;20008;-81
2022/06/16 03:52:35;;;;;;;16.70;10.82;;;12.40;99.90;;;;;;6226343;22;20091;-81
2022/06/16 03:55:05;;;;;;;16.95;10.23;;;12.40;99.90;;;;;;6279329;22;20070;-83
2022/06/16 03:57:31;;;;;;;19.15;11.38;;;12.50;99.90;;;;;;6251995;22;20073;-83
2022/06/16 03:59:57;;;;;;;15.13;10.57;;;12.50;99.90;;;;;;6279160;22;20011;-80
2022/06/16 04:02:22;;;;;;;16.30;10.50;;;12.50;99.90;;;;;;6246294;23;20383;-79
2022/06/16 04:04:48;;;;;;;20.67;11.15;;;12.40;99.90;;;;;;6246724;23;20008;-81
2022/06/16 04:07:14;;;;;;;17.38;10.68;;;12.40;99.90;;;;;;6246547;23;20004;-83
2022/06/16 04:09:40;;;;;;;15.68;10.50;;;12.50;99.90;;;;;;6248634;22;20356;-82
2022/06/16 04:12:19;;;;;;;18.33;10.27;;;12.50;99.90;;;;;;6221198;23;20022;-82
2022/06/16 04:14:44;;;;;;;19.92;10.80;;;12.70;99.90;;;;;;6220721;23;20012;-80
2022/06/16 04:17:10;;;;;;;14.57;9.45;;;12.70;99.90;;;;;;6246513;23;20047;-81
2022/06/16 04:20:11;;;;;;;14.48;9.90;;;12.70;99.90;;;;;;6247017;23;20457;-83
2022/06/16 04:22:21;;;;;;;14.13;9.50;;;12.70;99.90;;;;;;6246184;23;20107;-82
2022/06/16 04:24:47;;;;;;;16.63;9.23;;;12.70;99.90;;;;;;6246511;23;20012;-82
2022/06/16 04:27:12;;;;;;;19.08;10.70;;;12.70;99.90;;;;;;6248519;23;20057;-81
2022/06/16 04:29:38;;;;;;;17.08;9.98;;;12.70;99.90;;;;;;6248007;23;20057;-84
2022/06/16 04:32:04;;;;;;;16.23;10.40;;;12.70;99.90;;;;;;6246464;23;20397;-80
2022/06/16 04:34:29;;;;;;;16.88;10.50;;;12.70;99.90;;;;;;6247962;23;20008;-82
2022/06/16 04:36:55;;;;;;;20.50;10.95;;;12.70;99.90;;;;;;6245854;23;20020;-82
2022/06/16 04:39:21;;;;;;;16.27;10.30;;;12.70;99.90;;;;;;6248290;23;20016;-82
2022/06/16 04:41:46;;;;;;;17.25;10.95;;;12.70;99.90;;;;;;6246086;23;20338;-81
2022/06/16 04:44:12;;;;;;;25.52;12.25;;;12.80;99.90;;;;;;6248162;23;20008;-83
2022/06/16 04:46:37;;;;;;;19.00;12.88;;;12.70;99.90;;;;;;6246711;23;20008;-82
2022/06/16 04:49:04;;;;;;;21.23;11.50;;;12.70;99.90;;;;;;6246413;23;20019;-83
2022/06/16 04:51:30;;;;;;;18.85;11.30;;;12.70;99.90;;;;;;6220853;23;20012;-82
2022/06/16 04:53:55;;;;;;;21.63;12.57;;;12.70;99.90;;;;;;6248111;23;20065;-83
2022/06/16 04:56:21;;;;;;;21.45;11.65;;;12.60;99.90;;;;;;6248014;23;20008;-79
2022/06/16 04:58:47;;;;;;;19.95;11.35;;;12.60;99.90;;;;;;6247854;23;20012;-82
2022/06/16 05:01:12;;;;;;;17.75;11.20;;;12.70;99.90;;;;;;6220724;23;20027;-80
2022/06/16 05:03:38;;;;;;;22.98;11.88;;;12.70;99.90;;;;;;6246075;23;20020;-80
2022/06/16 05:06:03;;;;;;;18.10;11.60;;;12.70;99.90;;;;;;6248340;23;20019;-81
2022/06/16 05:08:29;;;;;;;22.13;11.75;;;12.80;99.90;;;;;;6246181;23;20311;-80
2022/06/16 05:10:55;;;;;;;21.05;11.55;;;12.80;99.90;;;;;;6248127;23;20051;-82
2022/06/16 05:13:21;;;;;;;16.75;11.55;;;12.80;99.90;;;;;;6246463;23;20024;-82
2022/06/16 05:15:47;;;;;;;18.00;11.00;;;12.90;99.90;;;;;;6246407;23;20024;-82
2022/06/16 05:18:13;;;;;;;18.10;11.73;;;12.90;99.90;;;;;;6246004;23;20019;-82
2022/06/16 05:20:43;;;;;;;19.33;11.85;;;12.90;99.90;;;;;;6245729;23;20074;-80
2022/06/16 05:23:12;;;;;;;17.10;11.13;;;12.90;99.90;;;;;;6245881;23;20016;-82
2022/06/16 05:25:39;;;;;;;19.02;10.88;;;13.00;99.90;;;;;;6246135;23;20043;-83
2022/06/16 05:28:06;;;;;;;17.02;10.00;;;13.10;99.90;;;;;;6246235;23;20016;-82
2022/06/16 05:30:32;;;;;;;22.38;10.93;;;13.10;99.90;;;;;;6246392;23;20065;-83
2022/06/16 05:32:58;;;;;;;15.57;10.65;;;13.10;99.90;;;;;;6245999;23;20012;-83
2022/06/16 05:35:24;;;;;;;15.55;9.82;;;13.10;99.90;;;;;;6247865;23;20012;-82
2022/06/16 05:37:50;;;;;;;16.58;9.10;;;13.10;99.90;;;;;;6248114;22;20311;-81
2022/06/16 05:40:15;;;;;;;15.15;10.02;;;13.20;99.90;;;;;;6246030;23;20026;-83
2022/06/16 05:42:41;;;;;;;18.52;10.00;;;13.20;99.90;;;;;;6245965;23;20343;-80
2022/06/16 05:45:09;;;;;;;16.13;9.77;;;13.20;99.90;;;;;;6246030;23;20012;-81
2022/06/16 05:47:39;;;;;;;16.00;10.32;;;13.20;99.90;;;;;;6245599;23;20453;-81
2022/06/16 05:50:06;;;;;;;17.10;10.85;;;13.20;99.90;;;;;;6245568;23;20009;-80
2022/06/16 05:52:32;;;;;;;15.52;9.35;;;13.30;99.90;;;;;;6248223;22;20310;-80
2022/06/16 05:54:58;;;;;;;18.67;8.88;;;13.30;99.90;;;;;;6220256;23;20083;-79
2022/06/16 05:57:24;;;;;;;13.07;7.90;;;13.30;99.90;;;;;;6245900;23;20008;-82
2022/06/16 05:59:49;;;;;;;15.65;8.73;;;13.30;99.90;;;;;;6246132;23;20135;-83
2022/06/16 06:02:18;;;;;;;13.80;7.75;;;13.40;99.90;;;;;;6250503;22;20012;-80
2022/06/16 06:04:45;;;;;;;15.95;7.93;;;13.40;99.90;;;;;;6251104;22;20344;-81
2022/06/16 06:07:11;;;;;;;13.38;7.57;;;13.50;99.90;;;;;;6250913;22;20008;-79
2022/06/16 06:18:19;;;;;;;16.75;8.68;;;13.80;99.90;;;;;;6275960;22;20054;-83
2022/06/16 06:20:45;;;;;;;16.00;7.80;;;13.90;99.90;;;;;;6277893;22;20016;-80
2022/06/16 06:23:11;;;;;;;14.15;6.90;;;13.90;99.90;;;;;;6225080;22;20030;-82
2022/06/16 06:25:37;;;;;;;7.72;3.67;;;14.00;99.90;;;;;;6250495;22;20012;-81
2022/06/16 06:28:03;;;;;;;7.35;3.72;;;14.00;99.90;;;;;;6250148;22;20011;-81
2022/06/16 06:30:31;;;;;;;5.38;3.33;;;14.10;99.90;;;;;;6250111;22;20377;-80
2022/06/16 06:33:01;;;;;;;8.13;3.75;;;14.20;99.90;;;;;;6250500;22;20345;-80
2022/06/16 06:35:27;;;;;;;7.82;3.50;;;14.20;99.90;;;;;;6277682;22;20305;-81
2022/06/16 06:37:52;;;;;;;7.88;4.40;;;14.30;99.90;;;;;;6250013;22;20087;-80
2022/06/16 06:40:34;;;;;;;5.63;4.18;;;14.30;99.90;;;;;;6250529;22;20015;-82
2022/06/16 06:43:00;;;;;;;6.65;3.53;;;14.30;99.90;;;;;;6249906;22;20083;-81
2022/06/16 06:45:26;;;;;;;6.18;3.20;;;14.40;99.90;;;;;;6278242;22;20014;-81
2022/06/16 06:47:52;;;;;;;5.88;3.58;;;14.40;99.90;;;;;;6250572;22;20386;-84
2022/06/16 06:50:22;;;;;;;5.97;2.83;;;14.50;99.90;;;;;;6277953;22;20368;-80
2022/06/16 06:52:48;;;;;;;6.07;3.47;;;14.60;99.90;;;;;;6278913;22;20309;-82
2022/06/16 06:55:14;;;;;;;5.63;2.45;;;14.60;99.90;;;;;;6250794;22;20433;-83
2022/06/16 06:57:40;;;;;;;6.45;2.60;;;14.60;99.90;;;;;;6277916;22;20008;-83
2022/06/16 07:00:07;;;;;;;6.03;2.55;;;14.70;99.90;;;;;;6278450;22;20012;-83
2022/06/16 07:02:46;;;;;;;6.25;2.65;;;14.70;99.90;;;;;;6226832;22;20087;-81
2022/06/16 07:05:12;;;;;;;5.75;2.60;;;14.80;99.90;;;;;;6277466;22;20046;-82
2022/06/16 07:07:38;;;;;;;5.75;3.05;;;14.90;99.90;;;;;;6250951;22;20012;-82
2022/06/16 07:10:06;;;;;;;5.78;2.58;;;14.90;99.90;;;;;;6277698;22;20008;-80
2022/06/16 07:12:34;;;;;;;9.40;2.70;;;15.00;99.90;;;;;;6275915;22;20043;-82
2022/06/16 07:17:28;;;;;;;5.30;2.60;;;15.10;99.90;;;;;;6303591;22;20019;-81
2022/06/16 07:19:54;;;;;;;8.07;2.47;;;15.20;99.90;;;;;;6254485;22;20015;-83
2022/06/16 07:22:20;;;;;;;6.35;1.70;;;15.20;99.90;;;;;;6308689;22;20007;-80
2022/06/16 07:24:48;;;;;;;3.58;1.40;;;15.30;99.90;;;;;;6281690;22;20425;-83
2022/06/16 07:27:15;;;;;;;6.18;1.10;;;15.40;99.90;;;;;;6303543;22;20012;-81
2022/06/16 07:29:40;;;;;;;3.92;1.10;;;15.40;99.90;;;;;;6279158;22;20011;-82
2022/06/16 07:32:06;;;;;;;4.97;1.10;;;15.40;99.90;;;;;;6280094;22;20058;-81
2022/06/16 07:34:32;;;;;;;4.07;1.08;;;15.50;99.90;;;;;;6278862;22;20064;-81
2022/06/16 07:36:58;;;;;;;3.85;1.30;;;15.50;99.90;;;;;;6277999;22;20453;-81
2022/06/16 07:39:23;;;;;;;2.13;1.10;;;15.60;99.90;;;;;;6279856;22;20079;-82
2022/06/16 07:41:49;;;;;;;4.00;1.17;;;15.70;99.90;;;;;;6279917;22;20007;-82
2022/06/16 07:44:16;;;;;;;5.53;1.67;;;15.70;99.90;;;;;;6279164;22;20012;-80
2022/06/16 07:46:44;;;;;;;3.50;1.70;;;15.90;99.90;;;;;;6251552;22;20011;-79
2022/06/16 07:49:12;;;;;;;4.68;1.88;;;15.90;99.90;;;;;;6252285;22;20003;-81
2022/06/16 07:51:39;;;;;;;5.82;1.90;;;16.00;99.90;;;;;;6277819;22;20047;-79
2022/06/16 07:54:06;;;;;;;4.22;1.80;;;16.10;99.90;;;;;;6279001;22;20011;-81
2022/06/16 07:56:31;;;;;;;6.15;2.00;;;16.20;99.90;;;;;;6279401;22;20012;-80
2022/06/16 07:58:57;;;;;;;4.70;2.15;;;16.20;99.90;;;;;;6277442;22;20011;-81
2022/06/16 08:01:22;;;;;;;5.07;2.42;;;16.30;99.90;;;;;;6277802;22;20061;-78
2022/06/16 08:03:48;;;;;;;4.95;2.03;;;16.40;99.90;;;;;;6279805;22;20035;-83
2022/06/16 08:06:17;;;;;;;6.40;2.10;;;16.50;99.90;;;;;;6278450;22;20015;-80
2022/06/16 08:08:44;;;;;;;4.57;2.30;;;16.70;99.90;;;;;;6252243;22;20103;-82
2022/06/16 08:12:03;;;;;;;7.47;2.42;;;16.70;99.90;;;;;;6277337;22;20379;-82
2022/06/16 08:13:59;;;;;;;4.25;1.90;;;16.90;99.90;;;;;;6277549;22;20055;-79
2022/06/16 08:16:25;;;;;;;5.38;2.13;;;17.00;99.90;;;;;;6278529;22;20008;-81
2022/06/16 08:18:51;;;;;;;3.92;2.22;;;17.10;99.90;;;;;;6277669;22;20047;-81
2022/06/16 08:21:16;;;;;;;8.95;2.80;;;17.20;99.90;;;;;;6279077;22;20307;-83
2022/06/16 08:23:42;;;;;;;5.45;2.38;;;17.20;99.90;;;;;;6277404;22;20019;-81
2022/06/16 08:26:10;;;;;;;5.85;2.15;;;17.30;99.90;;;;;;6277413;22;20441;-81
2022/06/16 08:28:39;;;;;;;3.40;2.10;;;17.40;99.90;;;;;;6277891;22;20034;-83
2022/06/16 08:31:06;;;;;;;5.15;2.70;;;17.40;99.90;;;;;;6279296;22;20042;-83
2022/06/16 08:33:32;;;;;;;5.38;2.53;;;17.50;99.90;;;;;;6277438;22;20090;-82
2022/06/16 08:35:58;;;;;;;6.47;3.08;;;17.60;99.90;;;;;;6277358;22;20022;-79
2022/06/16 08:38:24;;;;;;;5.70;2.65;;;17.70;99.90;;;;;;6276956;22;20011;-82
2022/06/16 08:41:11;;;;;;;5.18;2.75;;;17.80;99.90;;;;;;6276772;22;20440;-80
2022/06/16 08:43:49;;;;;;;4.47;2.50;;;17.80;99.90;;;;;;6251356;22;20018;-79
2022/06/16 08:46:17;;;;;;;5.10;2.85;;;18.00;99.90;;;;;;6277076;22;20012;-82
2022/06/16 08:49:02;;;;;;;5.45;2.97;;;18.10;99.90;;;;;;6279050;22;20012;-80
2022/06/16 08:51:59;;;;;;;4.28;2.38;;;18.30;99.90;;;;;;6278900;22;20016;-80
2022/06/16 08:54:42;;;;;;;6.15;2.60;;;18.30;99.90;;;;;;6278847;22;20445;-83
2022/06/16 08:57:20;;;;;;;5.63;2.90;;;18.50;99.90;;;;;;6276866;22;20007;-80
2022/06/16 09:00:00;;;;;;;7.28;2.90;;;18.70;99.90;;;;;;6277065;22;20012;-82
2022/06/16 09:02:47;;;;;;;8.48;3.38;;;18.90;99.90;;;;;;6279525;22;20016;-83
2022/06/16 09:05:25;;;;;;;5.68;2.78;;;19.10;99.90;;;;;;6276894;22;20047;-82
2022/06/16 09:08:12;;;;;;;6.40;3.50;;;19.20;99.90;;;;;;6251125;22;20011;-82
2022/06/16 09:11:07;;;;;;;5.70;2.88;;;19.30;99.90;;;;;;6252677;22;20011;-81
2022/06/16 09:13:44;;;;;;;8.95;3.38;;;19.50;99.90;;;;;;6277143;22;20094;-81
2022/06/16 09:16:43;;;;;;;6.80;3.25;;;19.50;99.90;;;;;;6276706;22;20464;-83
2022/06/16 09:19:17;;;;;;;8.07;3.10;;;19.60;99.90;;;;;;6210759;22;20019;-82
2022/06/16 09:21:48;;;;;;;5.78;3.20;;;19.60;99.90;;;;;;6251615;22;20022;-80
2022/06/16 09:24:28;;;;;;;8.98;2.97;;;19.70;99.90;;;;;;6277232;22;20016;-82
2022/06/16 09:27:12;;;;;;;5.57;2.72;;;19.80;99.90;;;;;;6277632;22;20326;-82
2022/06/16 09:29:45;;;;;;;7.95;3.33;;;19.90;99.90;;;;;;6276995;22;20341;-82
2022/06/16 09:32:40;;;;;;;6.57;2.70;;;20.10;99.90;;;;;;6278807;22;20016;-81
2022/06/16 09:35:31;;;;;;;6.72;3.03;;;20.20;99.90;;;;;;6279013;22;20012;-80
2022/06/16 09:38:09;;;;;;;6.55;2.92;;;20.40;99.90;;;;;;6279656;22;20319;-83
2022/06/16 09:40:47;;;;;;;7.65;3.33;;;20.50;99.90;;;;;;6277098;22;20022;-81
2022/06/16 09:43:21;;;;;;;9.65;3.10;;;20.50;99.90;;;;;;6276979;22;20012;-83
2022/06/16 09:46:05;;;;;;;5.35;2.65;;;20.50;99.90;;;;;;6277149;22;20041;-82
2022/06/16 09:48:40;;;;;;;7.35;2.83;;;20.60;99.90;;;;;;6276187;22;20086;-81
2022/06/16 09:51:08;;;;;;;;;;;20.70;99.90;;;;;;6276655;22;20468;-82
2022/06/16 09:53:43;;;;;;;7.40;3.00;;;20.80;99.90;;;;;;6277770;22;20291;-81
2022/06/16 09:56:26;;;;;;;5.45;2.42;;;20.90;99.90;;;;;;6276093;22;20038;-80
2022/06/16 09:59:03;;;;;;;6.93;2.70;;;21.10;99.90;;;;;;6276109;22;20012;-82
2022/06/16 10:01:35;;;;;;;5.95;2.75;;;21.10;99.90;;;;;;6276150;22;20039;-84
2022/06/16 10:04:06;;;;;;;4.85;2.35;;;21.20;99.90;;;;;;6276386;22;20008;-82
2022/06/16 10:07:10;;;;;;;7.25;2.53;;;21.40;99.90;;;;;;6276901;22;20042;-80
2022/06/16 10:09:56;;;;;;;6.18;2.90;;;21.50;99.90;;;;;;6275370;22;20012;-80
2022/06/16 10:12:45;;;;;;;5.55;2.67;;;21.60;99.90;;;;;;6278107;22;20023;-81
2022/06/16 10:15:22;;;;;;;5.47;2.42;;;21.50;99.90;;;;;;6275489;22;20012;-81
2022/06/16 10:17:50;;;;;;;5.65;2.92;;;21.50;99.90;;;;;;6250175;22;20058;-81
2022/06/16 10:20:18;;;;;;;6.80;2.80;;;21.60;99.90;;;;;;6277685;22;20072;-83
2022/06/16 10:22:48;;;;;;;3.63;2.35;;;21.60;99.90;;;;;;6277953;22;20008;-80
2022/06/16 10:25:30;;;;;;;7.50;2.80;;;21.70;99.90;;;;;;6277850;22;20007;-82
2022/06/16 10:28:00;;;;;;;7.28;3.30;;;22.00;99.90;;;;;;6277840;22;20062;-83
2022/06/16 10:30:33;;;;;;;6.50;2.85;;;22.10;99.90;;;;;;6275900;22;20545;-80
2022/06/16 10:33:20;;;;;;;9.05;2.97;;;22.20;99.90;;;;;;6278083;22;20015;-82
2022/06/16 10:36:17;;;;;;;3.67;2.63;;;22.30;99.90;;;;;;6277499;22;20008;-80
2022/06/16 10:38:46;;;;;;;7.00;2.70;;;22.40;99.90;;;;;;6275810;22;20429;-81
2022/06/16 10:41:39;;;;;;;7.30;3.00;;;22.60;99.90;;;;;;6275524;22;20008;-81
2022/06/16 10:44:09;;;;;;;7.93;3.25;;;22.80;99.90;;;;;;6275907;22;20023;-80
2022/06/16 10:46:50;;;;;;;4.88;2.50;;;22.90;99.90;;;;;;6250391;22;20437;-83
2022/06/16 10:49:25;;;;;;;7.68;3.55;;;23.00;99.90;;;;;;6277903;22;20042;-82
2022/06/16 10:52:02;;;;;;;7.80;3.30;;;23.00;99.90;;;;;;6278048;22;20105;-82
2022/06/16 10:54:32;;;;;;;6.78;3.53;;;22.90;99.90;;;;;;6276416;22;20074;-82
2022/06/16 10:57:11;;;;;;;6.68;3.95;;;22.70;99.90;;;;;;6275767;22;20081;-84
2022/06/16 10:59:41;;;;;;;6.57;3.53;;;22.40;99.90;;;;;;6276779;22;20341;-81
2022/06/16 11:02:28;;;;;;;5.93;3.22;;;22.30;99.90;;;;;;6279353;22;20425;-80
2022/06/16 11:05:12;;;;;;;6.32;3.30;;;22.60;99.90;;;;;;6252211;22;20015;-81
2022/06/16 11:07:42;;;;;;;6.00;3.92;;;22.70;99.90;;;;;;6277879;22;20011;-84
2022/06/16 11:10:12;;;;;;;6.57;3.50;;;22.80;99.90;;;;;;6277948;22;20134;-82
2022/06/16 11:12:41;;;;;;;5.78;3.80;;;22.90;99.90;;;;;;6277362;22;20016;-82
2022/06/16 11:15:22;;;;;;;8.30;4.20;;;23.00;99.90;;;;;;6277442;22;20079;-83
2022/06/16 11:17:53;;;;;;;8.85;3.60;;;23.10;99.90;;;;;;6251948;22;20012;-80
2022/06/16 11:20:39;;;;;;;6.35;3.60;;;23.10;99.90;;;;;;6277314;22;20015;-81
2022/06/16 11:23:17;;;;;;;6.82;3.45;;;23.30;99.90;;;;;;6277659;22;20022;-79
2022/06/16 11:25:43;;;;;;;7.30;3.65;;;23.40;99.90;;;;;;6277426;22;20446;-82
2022/06/16 11:28:12;;;;;;;5.78;3.17;;;23.50;99.90;;;;;;6277429;22;20019;-80
2022/06/16 11:30:40;;;;;;;7.35;2.80;;;23.60;99.90;;;;;;6277255;22;20019;-82
2022/06/16 11:36:27;;;;;;;4.55;2.85;;;23.40;99.90;;;;;;6277297;22;20015;-82
2022/06/16 11:39:07;;;;;;;7.57;2.80;;;23.40;99.90;;;;;;6277484;22;20020;-84
2022/06/16 11:41:32;;;;;;;6.50;2.58;;;23.50;99.90;;;;;;6277339;22;20453;-82
2022/06/16 11:44:10;;;;;;;8.43;3.00;;;23.70;99.90;;;;;;6279228;22;20034;-81
2022/06/16 11:46:45;;;;;;;7.65;2.97;;;23.80;98.30;;;;;;6253464;22;20012;-80
2022/06/16 11:49:38;;;;;;;7.70;3.30;;;23.70;99.60;;;;;;6278823;22;20430;-83
2022/06/16 11:52:34;;;;;;;6.25;2.95;;;23.90;99.80;;;;;;6277605;22;20023;-84
2022/06/16 11:55:23;;;;;;;4.57;3.10;;;23.90;98.90;;;;;;6277004;22;20437;-82
2022/06/16 11:58:01;;;;;;;6.10;3.10;;;23.90;99.70;;;;;;6276462;22;20023;-81
2022/06/16 12:00:57;;;;;;;7.97;2.83;;;23.90;99.90;;;;;;6277275;22;20016;-82
2022/06/16 12:03:41;;;;;;;3.85;2.60;;;23.90;99.90;;;;;;6279131;22;20019;-80
2022/06/16 12:06:32;;;;;;;7.67;2.70;;;23.90;99.90;;;;;;6277172;22;20434;-82
2022/06/16 12:09:19;;;;;;;7.57;2.53;;;23.80;99.90;;;;;;6277620;22;20013;-83
2022/06/16 12:12:10;;;;;;;9.68;3.65;;;23.70;99.90;;;;;;6276502;22;20354;-83
2022/06/16 12:14:57;;;;;;;6.65;3.03;;;23.60;99.90;;;;;;6277286;22;20357;-82
2022/06/16 12:17:42;;;;;;;6.22;2.45;;;23.70;99.90;;;;;;6276987;22;20020;-83
2022/06/16 12:20:17;;;;;;;;;;;23.90;99.90;;;;;;6277756;22;20011;-80
2022/06/16 12:22:57;;;;;;;6.60;3.40;;;24.10;99.90;;;;;;6277118;22;19926;-84
2022/06/16 12:25:29;;;;;;;5.90;2.50;;;24.10;99.70;;;;;;6251166;22;20012;-82
2022/06/16 12:28:29;;;;;;;6.05;3.00;;;24.30;99.60;;;;;;6276851;22;20047;-82
2022/06/16 12:31:04;;;;;;;5.20;3.30;;;24.20;97.90;;;;;;6278575;22;20015;-82
2022/06/16 12:33:53;;;;;;;7.10;2.80;;;24.20;96.10;;;;;;6277125;22;20020;-80
2022/06/16 12:36:26;;;;;;;6.40;2.83;;;24.10;96.90;;;;;;6278532;22;20062;-82
2022/06/16 12:38:58;;;;;;;5.07;2.83;;;24.10;95.70;;;;;;6276592;22;20016;-82
2022/06/16 12:41:36;;;;;;;4.35;2.88;;;24.10;96.00;;;;;;6276444;22;20038;-83
2022/06/16 12:44:17;;;;;;;5.57;2.80;;;24.20;97.50;;;;;;6278349;22;20474;-81
2022/06/16 12:46:58;;;;;;;4.30;2.50;;;24.30;97.10;;;;;;6276614;22;20022;-81
2022/06/16 12:49:43;;;;;;;6.97;2.70;;;24.50;96.50;;;;;;6277695;22;20360;-83
2022/06/16 12:52:25;;;;;;;9.82;3.08;;;24.60;93.50;;;;;;6276824;22;20011;-81
2022/06/16 12:55:04;;;;;;;5.05;2.67;;;24.80;96.00;;;;;;6251213;22;20016;-82
2022/06/16 12:57:56;;;;;;;6.13;2.92;;;25.00;94.90;;;;;;6276998;22;20349;-84
2022/06/16 13:00:26;;;;;;;5.45;3.25;;;25.00;95.00;;;;;;6263279;22;20511;-81
2022/06/16 13:02:59;;;;;;;6.72;3.97;;;25.00;93.80;;;;;;6276775;22;20015;-83
2022/06/16 13:05:25;;;;;;;5.55;2.70;;;24.90;93.10;;;;;;6278374;22;20083;-82
2022/06/16 13:07:54;;;;;;;6.05;3.28;;;25.00;94.90;;;;;;6276429;22;20441;-83
2022/06/16 13:10:20;;;;;;;6.32;3.88;;;25.10;94.40;;;;;;6276369;22;20018;-84
2022/06/16 13:12:55;;;;;;;7.05;3.30;;;25.20;93.60;;;;;;6250682;22;20052;-81
2022/06/16 13:15:50;;;;;;;6.18;3.10;;;25.10;92.50;;;;;;6276181;22;20012;-82
2022/06/16 13:18:20;;;;;;;5.60;3.00;;;25.10;93.00;;;;;;6270572;22;20012;-83
2022/06/16 13:20:51;;;;;;;3.85;2.50;;;24.90;95.10;;;;;;6277010;22;20087;-82
2022/06/16 13:23:30;;;;;;;8.38;3.70;;;25.10;96.50;;;;;;6278719;22;20059;-82
2022/06/16 13:26:15;;;;;;;5.43;3.50;;;25.20;95.30;;;;;;6276793;22;20043;-81
2022/06/16 13:28:49;;;;;;;6.32;3.47;;;25.00;93.20;;;;;;6279035;22;20011;-82
2022/06/16 13:31:28;;;;;;;6.63;3.60;;;24.80;94.80;;;;;;6276452;22;20413;-82
2022/06/16 13:33:54;;;;;;;7.20;4.32;;;24.80;95.60;;;;;;6278708;22;20016;-81
2022/06/16 13:36:22;;;;;;;6.57;3.55;;;24.50;96.00;;;;;;6278747;22;20060;-82
2022/06/16 13:38:50;;;;;;;6.55;3.90;;;24.30;95.90;;;;;;6276608;22;20483;-80
2022/06/16 13:41:38;;;;;;;8.02;3.72;;;24.20;96.90;;;;;;6278356;22;20008;-81
2022/06/16 13:44:19;;;;;;;6.38;3.65;;;24.40;96.80;;;;;;6282856;22;20107;-82
2022/06/16 13:46:50;;;;;;;7.53;3.67;;;24.60;98.00;;;;;;6278703;22;20371;-82
2022/06/16 13:49:53;;;;;;;6.90;3.42;;;24.60;98.60;;;;;;6276404;22;20015;-84
2022/06/16 13:52:27;;;;;;;7.00;3.90;;;24.60;99.40;;;;;;6251278;22;20050;-83
2022/06/16 13:55:11;;;;;;;7.90;3.80;;;24.30;99.10;;;;;;6280150;22;20011;-81
2022/06/16 13:57:36;;;;;;;9.52;3.55;;;24.10;99.90;;;;;;6282281;22;20077;-82
2022/06/16 14:00:12;;;;;;;6.40;3.25;;;23.80;99.60;;;;;;6283279;22;20035;-81
2022/06/16 14:02:57;;;;;;;7.35;3.50;;;23.80;99.90;;;;;;6283751;22;20023;-81
2022/06/16 14:05:31;;;;;;;;;;;23.90;98.80;;;;;;6280092;22;20031;-81
2022/06/16 14:08:13;;;;;;;6.70;3.60;;;23.90;98.20;;;;;;6276518;22;20321;-83
2022/06/16 14:10:52;;;;;;;9.57;3.88;;;24.10;99.10;;;;;;6278370;22;20430;-83
2022/06/16 14:13:37;;;;;;;9.48;4.07;;;23.90;99.40;;;;;;6277318;22;20073;-80
2022/06/16 14:16:03;;;;;;;8.73;3.67;;;23.50;97.80;;;;;;6277171;22;20132;-81
2022/06/16 14:18:34;;;;;;;6.30;3.83;;;23.70;99.30;;;;;;6249640;22;20016;-83
2022/06/16 14:21:09;;;;;;;5.93;3.35;;;23.80;99.50;;;;;;6249486;22;20012;-82
2022/06/16 14:23:46;;;;;;;8.70;3.65;;;24.10;99.90;;;;;;6275894;22;20003;-82
2022/06/16 14:26:18;;;;;;;7.45;3.70;;;24.30;99.90;;;;;;6275644;22;20007;-80
2022/06/16 14:28:46;;;;;;;6.65;3.70;;;24.50;99.90;;;;;;6249820;22;20035;-82
2022/06/16 14:31:33;;;;;;;7.15;3.83;;;24.50;98.60;;;;;;6275054;22;20442;-82
2022/06/16 14:34:27;;;;;;;7.90;3.63;;;24.40;99.30;;;;;;6274763;22;20445;-82
2022/06/16 14:37:02;;;;;;;6.68;4.35;;;24.50;99.90;;;;;;6249012;22;20408;-82
2022/06/16 14:39:31;;;;;;;;;;;24.70;99.30;;;;;;6275090;22;20340;-82
2022/06/16 14:42:02;;;;;;;8.85;4.43;;;24.60;99.90;;;;;;6274791;22;20307;-81
2022/06/16 14:44:40;;;;;;;6.28;3.92;;;24.60;98.40;;;;;;6275523;22;20357;-84
2022/06/16 14:47:28;;;;;;;6.20;4.00;;;24.60;97.50;;;;;;6276614;22;20011;-81
2022/06/16 14:50:23;;;;;;;7.70;3.50;;;24.60;99.40;;;;;;6276807;22;20011;-82
2022/06/16 14:52:54;;;;;;;5.95;4.00;;;24.70;99.80;;;;;;6276854;22;20016;-83
2022/06/16 14:55:28;;;;;;;5.72;4.05;;;24.80;99.20;;;;;;6274846;22;20100;-82
2022/06/16 14:57:54;;;;;;;7.50;3.38;;;24.70;98.20;;;;;;6276500;22;20456;-82
2022/06/16 15:00:23;;;;;;;6.95;3.20;;;24.80;98.00;;;;;;6274649;22;20083;-82
2022/06/16 15:02:50;;;;;;;6.65;3.78;;;24.70;98.20;;;;;;6276541;22;20014;-82
2022/06/16 15:05:18;;;;;;;10.70;3.67;;;24.60;96.40;;;;;;6274660;22;20008;-81
2022/06/16 15:07:44;;;;;;;9.10;3.75;;;24.60;96.50;;;;;;6274691;22;20004;-82
2022/06/16 15:10:14;;;;;;;11.55;3.80;;;24.70;96.50;;;;;;6274669;22;20007;-84
2022/06/16 15:12:40;;;;;;;6.20;3.13;;;24.70;97.20;;;;;;6275558;22;20038;-83
2022/06/16 15:15:10;;;;;;;5.50;3.03;;;24.80;97.50;;;;;;6227445;22;1089838;-83
2022/06/16 15:20:22;;;;;;;5.60;3.08;;;24.90;96.10;;;;;;6276158;22;20023;-82
2022/06/16 15:22:51;;;;;;;4.50;3.00;;;24.70;96.40;;;;;;6250435;22;20019;-82
2022/06/16 15:25:28;;;;;;;7.82;3.33;;;24.80;97.30;;;;;;6277918;22;20012;-83
2022/06/16 15:27:54;;;;;;;7.20;4.25;;;24.90;97.10;;;;;;6276067;22;20375;-85
2022/06/16 15:30:30;;;;;;;6.03;3.53;;;24.80;95.80;;;;;;6250933;22;20042;-80
2022/06/16 15:38:27;;;;;;;6.82;4.03;;;25.00;97.10;;;;;;6275567;22;20012;-82
2022/06/16 15:40:54;;;;;;;6.05;3.50;;;25.00;96.20;;;;;;6275905;22;20016;-85
2022/06/16 15:43:23;;;;;;;7.18;3.00;;;24.90;96.30;;;;;;6278331;22;20062;-83
2022/06/16 15:45:58;;;;;;;6.20;3.47;;;24.90;96.60;;;;;;6250090;22;20461;-82
2022/06/16 15:48:28;;;;;;;7.30;3.90;;;24.80;95.60;;;;;;6278984;22;20430;-83
2022/06/16 15:50:56;;;;;;;9.23;3.38;;;24.80;96.60;;;;;;6277630;22;20039;-82
2022/06/16 15:53:25;;;;;;;6.93;4.10;;;24.80;96.60;;;;;;6277979;22;20446;-83
2022/06/16 15:55:53;;;;;;;7.28;3.97;;;24.70;96.40;;;;;;6279871;22;20026;-85
2022/06/16 15:58:24;;;;;;;7.57;3.40;;;24.70;96.40;;;;;;6252547;22;20012;-83
2022/06/16 16:00:52;;;;;;;8.02;3.42;;;24.50;96.90;;;;;;6279450;22;20011;-80
2022/06/16 16:03:22;;;;;;;6.85;2.92;;;24.50;98.00;;;;;;6252054;22;20018;-82
2022/06/16 16:05:48;;;;;;;8.18;3.00;;;24.40;98.80;;;;;;6278403;22;20357;-84
2022/06/16 16:08:19;;;;;;;6.30;3.47;;;24.30;98.40;;;;;;6277603;22;20046;-82
2022/06/16 16:10:50;;;;;;;5.72;2.97;;;24.10;98.40;;;;;;6277609;22;20016;-81
2022/06/16 16:13:17;;;;;;;6.18;3.30;;;24.00;99.70;;;;;;6277777;22;20034;-82
2022/06/16 16:16:03;;;;;;;5.38;3.15;;;23.90;99.40;;;;;;6277586;22;20065;-80
2022/06/16 16:18:31;;;;;;;5.45;3.25;;;23.70;99.70;;;;;;6278922;22;20042;-83
2022/06/16 16:21:01;;;;;;;6.32;3.10;;;23.60;99.90;;;;;;6277541;22;20016;-83
2022/06/16 16:23:46;;;;;;;5.05;2.90;;;23.50;99.90;;;;;;6279309;22;20054;-81
2022/06/16 16:26:12;;;;;;;7.55;3.58;;;23.30;99.50;;;;;;6279804;22;20019;-83
2022/06/16 16:28:59;;;;;;;8.32;3.45;;;23.10;99.90;;;;;;6277828;22;20362;-81
2022/06/16 16:31:28;;;;;;;7.10;3.45;;;23.00;99.90;;;;;;6278421;22;20016;-82
2022/06/16 16:34:03;;;;;;;6.05;3.58;;;22.90;99.90;;;;;;6251891;22;20042;-84